createdAt,value
2023-05-10T01:57:02.160Z,63.17
2023-05-10T03:05:10.826Z,63.87
2023-05-10T10:26:03.286Z,76.51
2023-05-10T10:26:41.514Z,77.10
2023-05-10T10:27:41.563Z,77.12
2023-05-10T10:28:41.766Z,76.90
2023-05-10T10:29:41.497Z,76.71
2023-05-10T10:30:41.574Z,76.59
2023-05-10T10:31:54.265Z,76.66
2023-05-10T10:32:55.219Z,76.88
2023-05-10T10:34:05.417Z,77.09
2023-05-10T10:34:51.585Z,77.03
2023-05-10T10:35:41.394Z,76.77
2023-05-10T10:36:45.850Z,76.56
2023-05-10T10:38:02.336Z,76.44
2023-05-10T10:38:41.477Z,76.54
2023-05-10T10:39:43.050Z,76.61
2023-05-10T10:40:42.511Z,76.57
2023-05-10T10:41:48.588Z,76.44
2023-05-10T10:43:09.454Z,76.18
2023-05-10T10:43:51.090Z,76.02
2023-05-10T10:44:49.294Z,75.89
2023-05-10T10:45:42.214Z,75.85
2023-05-10T10:51:43.251Z,75.27
2023-05-10T10:52:31.382Z,75.44
2023-05-10T10:53:22.022Z,75.60
2023-05-10T10:54:22.912Z,76.28
2023-05-10T10:55:26.272Z,76.61
2023-05-10T10:56:21.888Z,76.45
2023-05-10T11:00:45.024Z,76.40
2023-05-10T11:01:44.772Z,76.99
2023-05-10T11:02:46.262Z,77.25
2023-05-10T11:03:44.699Z,77.55
2023-05-10T11:05:13.394Z,77.62
2023-05-10T11:05:49.188Z,77.54
2023-05-10T19:06:05.019Z,76.32
2023-05-10T19:07:01.814Z,76.81
2023-05-10T19:08:01.607Z,76.70
2023-05-10T19:09:01.535Z,76.71
2023-05-10T19:10:04.429Z,76.76
2023-05-10T19:11:01.602Z,76.69
2023-05-10T19:12:01.552Z,76.87
2023-05-10T19:13:01.468Z,77.02
2023-05-10T19:14:01.520Z,76.95
2023-05-10T19:15:01.507Z,76.95
2023-05-10T19:16:04.619Z,76.99
2023-05-10T19:17:01.514Z,76.88
2023-05-10T19:18:01.497Z,76.94
2023-05-10T19:19:01.836Z,77.00
2023-05-10T19:20:02.238Z,76.91
2023-05-10T19:21:02.229Z,76.82
2023-05-10T19:22:01.682Z,76.83
2023-05-10T19:23:09.735Z,76.99
2023-05-10T19:24:02.527Z,77.04
2023-05-10T19:25:01.682Z,77.12
2023-05-10T19:26:01.310Z,77.17
2023-05-10T19:27:01.958Z,77.20
2023-05-10T19:28:01.294Z,77.26
2023-05-10T19:29:03.525Z,77.15
2023-05-10T19:30:01.375Z,77.17
2023-05-10T19:31:01.268Z,77.29
2023-05-10T19:32:01.354Z,77.23
2023-05-10T19:33:01.309Z,77.20
2023-05-10T19:34:01.265Z,77.20
2023-05-10T19:35:01.348Z,77.24
2023-05-10T19:36:01.219Z,77.46
2023-05-10T19:37:01.251Z,77.68
2023-05-10T19:38:01.701Z,77.70
2023-05-10T19:39:01.195Z,77.52
2023-05-10T19:40:01.169Z,77.50
2023-05-10T19:41:01.202Z,77.49
2023-05-10T19:42:01.260Z,77.21
2023-05-10T19:43:01.168Z,77.08
2023-05-10T19:44:01.132Z,76.83
2023-05-10T19:45:01.658Z,76.70
2023-05-10T19:46:01.194Z,76.34
2023-05-10T19:47:01.141Z,76.35
2023-05-10T19:48:01.097Z,76.41
2023-05-10T19:49:01.455Z,76.30
2023-05-10T19:50:01.063Z,76.10
2023-05-10T19:51:01.231Z,76.16
2023-05-10T19:52:01.029Z,75.74
2023-05-10T19:53:01.104Z,75.45
2023-05-10T19:54:01.013Z,75.42
2023-05-10T19:55:00.980Z,75.37
2023-05-10T19:56:00.990Z,75.29
2023-05-10T19:57:01.078Z,75.04
2023-05-10T19:58:00.991Z,74.79
2023-05-10T19:59:00.959Z,74.58
2023-05-10T20:00:01.263Z,74.47
2023-05-10T20:01:00.956Z,74.34
2023-05-10T20:02:00.906Z,74.33
2023-05-10T20:03:00.944Z,74.39
2023-05-10T20:04:00.918Z,74.25
2023-05-10T20:05:00.882Z,74.19
2023-05-10T20:06:00.867Z,74.30
2023-05-10T20:07:00.876Z,74.43
2023-05-10T20:08:00.863Z,74.28
2023-05-10T20:09:00.843Z,74.30
2023-05-10T20:16:16.859Z,73.75
2023-05-10T20:17:16.507Z,74.33
2023-05-10T20:18:16.499Z,74.27
2023-05-10T20:19:16.457Z,74.23
2023-05-10T20:20:16.765Z,74.33
2023-05-10T20:21:16.374Z,74.41
2023-05-10T20:22:16.367Z,74.44
2023-05-10T20:23:16.460Z,74.51
2023-05-10T20:24:16.405Z,74.64
2023-05-10T20:25:16.376Z,74.78
2023-05-10T20:26:16.310Z,74.82
2023-05-10T20:27:16.608Z,74.87
2023-05-10T20:28:16.339Z,74.96
2023-05-10T20:29:16.341Z,75.05
2023-05-10T20:30:16.526Z,75.15
2023-05-10T20:31:17.439Z,75.19
2023-05-10T20:32:16.337Z,75.31
2023-05-10T20:33:16.290Z,75.29
2023-05-10T20:34:16.264Z,75.22
